sensor_id;sensor_type;location;lat;lon;timestamp;P1;durP1;ratioP1;P2;durP2;ratioP2
20381;SDS011;10350;51.280;12.400;2023-11-21T05:45:48;31.55;;;29.73;;
20381;SDS011;10350;51.280;12.400;2023-11-21T05:48:20;31.38;;;29.42;;
20381;SDS011;10350;51.280;12.400;2023-11-21T05:53:58;33.28;;;31.35;;
20381;SDS011;10350;51.280;12.400;2023-11-21T05:56:28;32.33;;;30.52;;
20381;SDS011;10350;51.280;12.400;2023-11-21T05:59:00;33.00;;;31.05;;
20381;SDS011;10350;51.280;12.400;2023-11-21T06:08:40;30.60;;;28.80;;
20381;SDS011;10350;51.280;12.400;2023-11-21T06:14:41;30.13;;;28.30;;
20381;SDS011;10350;51.280;12.400;2023-11-21T06:20:59;32.38;;;30.40;;
20381;SDS011;10350;51.280;12.400;2023-11-21T06:23:34;32.78;;;30.77;;
20381;SDS011;10350;51.280;12.400;2023-11-21T06:26:04;33.33;;;31.42;;
20381;SDS011;10350;51.280;12.400;2023-11-21T06:28:31;32.78;;;30.85;;
20381;SDS011;10350;51.280;12.400;2023-11-21T06:30:59;30.92;;;29.23;;
20381;SDS011;10350;51.280;12.400;2023-11-21T06:36:40;32.67;;;30.77;;
20381;SDS011;10350;51.280;12.400;2023-11-21T06:39:18;31.60;;;29.70;;
20381;SDS011;10350;51.280;12.400;2023-11-21T06:44:54;33.13;;;30.83;;
20381;SDS011;10350;51.280;12.400;2023-11-21T06:47:26;32.95;;;31.02;;
20381;SDS011;10350;51.280;12.400;2023-11-21T06:52:20;32.75;;;30.50;;
20381;SDS011;10350;51.280;12.400;2023-11-21T06:54:47;32.38;;;30.08;;
20381;SDS011;10350;51.280;12.400;2023-11-21T06:57:14;31.35;;;29.55;;
20381;SDS011;10350;51.280;12.400;2023-11-21T06:59:40;32.80;;;30.63;;
20381;SDS011;10350;51.280;12.400;2023-11-21T07:02:06;31.75;;;29.70;;
20381;SDS011;10350;51.280;12.400;2023-11-21T07:04:42;32.67;;;30.52;;
20381;SDS011;10350;51.280;12.400;2023-11-21T07:25:44;33.92;;;31.75;;
20381;SDS011;10350;51.280;12.400;2023-11-21T07:28:10;34.53;;;32.17;;
20381;SDS011;10350;51.280;12.400;2023-11-21T07:30:36;32.70;;;30.80;;
20381;SDS011;10350;51.280;12.400;2023-11-21T07:33:02;32.67;;;30.67;;
20381;SDS011;10350;51.280;12.400;2023-11-21T07:35:29;34.28;;;32.00;;
20381;SDS011;10350;51.280;12.400;2023-11-21T07:37:55;33.55;;;31.30;;
20381;SDS011;10350;51.280;12.400;2023-11-21T07:40:22;32.72;;;30.90;;
20381;SDS011;10350;51.280;12.400;2023-11-21T07:42:48;33.85;;;31.67;;
20381;SDS011;10350;51.280;12.400;2023-11-21T07:45:15;32.03;;;30.02;;
20381;SDS011;10350;51.280;12.400;2023-11-21T07:47:41;31.33;;;29.42;;
20381;SDS011;10350;51.280;12.400;2023-11-21T07:50:16;35.10;;;32.90;;
20381;SDS011;10350;51.280;12.400;2023-11-21T07:55:51;34.55;;;32.08;;
20381;SDS011;10350;51.280;12.400;2023-11-21T07:58:17;35.38;;;32.75;;
20381;SDS011;10350;51.280;12.400;2023-11-21T08:00:43;33.13;;;30.73;;
20381;SDS011;10350;51.280;12.400;2023-11-21T08:03:09;34.80;;;32.03;;
20381;SDS011;10350;51.280;12.400;2023-11-21T08:05:36;36.05;;;33.35;;
20381;SDS011;10350;51.280;12.400;2023-11-21T08:08:02;34.78;;;32.13;;
20381;SDS011;10350;51.280;12.400;2023-11-21T08:10:28;35.67;;;32.60;;
20381;SDS011;10350;51.280;12.400;2023-11-21T08:12:55;34.63;;;31.92;;
20381;SDS011;10350;51.280;12.400;2023-11-21T08:15:21;37.22;;;34.00;;
20381;SDS011;10350;51.280;12.400;2023-11-21T08:17:47;35.72;;;32.80;;
20381;SDS011;10350;51.280;12.400;2023-11-21T08:20:13;33.60;;;30.60;;
20381;SDS011;10350;51.280;12.400;2023-11-21T08:22:43;35.53;;;32.83;;
20381;SDS011;10350;51.280;12.400;2023-11-21T08:25:09;37.17;;;33.85;;
20381;SDS011;10350;51.280;12.400;2023-11-21T08:27:35;36.05;;;33.15;;
20381;SDS011;10350;51.280;12.400;2023-11-21T08:30:02;34.13;;;31.40;;
20381;SDS011;10350;51.280;12.400;2023-11-21T08:32:28;37.65;;;34.75;;
20381;SDS011;10350;51.280;12.400;2023-11-21T08:34:57;35.38;;;32.90;;
20381;SDS011;10350;51.280;12.400;2023-11-21T08:37:23;36.08;;;33.45;;
20381;SDS011;10350;51.280;12.400;2023-11-21T08:39:49;35.30;;;32.50;;
20381;SDS011;10350;51.280;12.400;2023-11-21T08:42:15;32.20;;;30.00;;
20381;SDS011;10350;51.280;12.400;2023-11-21T08:44:41;33.03;;;30.60;;
20381;SDS011;10350;51.280;12.400;2023-11-21T08:47:07;34.15;;;31.42;;
20381;SDS011;10350;51.280;12.400;2023-11-21T08:49:33;32.92;;;30.38;;
20381;SDS011;10350;51.280;12.400;2023-11-21T08:51:59;31.85;;;29.65;;
20381;SDS011;10350;51.280;12.400;2023-11-21T08:54:25;31.60;;;29.40;;
20381;SDS011;10350;51.280;12.400;2023-11-21T08:56:51;34.78;;;32.05;;
20381;SDS011;10350;51.280;12.400;2023-11-21T08:59:17;34.53;;;31.75;;
20381;SDS011;10350;51.280;12.400;2023-11-21T09:01:45;33.83;;;31.48;;
20381;SDS011;10350;51.280;12.400;2023-11-21T09:04:11;34.10;;;31.65;;
20381;SDS011;10350;51.280;12.400;2023-11-21T09:06:37;33.20;;;30.88;;
20381;SDS011;10350;51.280;12.400;2023-11-21T09:09:04;35.25;;;32.95;;
20381;SDS011;10350;51.280;12.400;2023-11-21T09:11:31;34.35;;;32.13;;
20381;SDS011;10350;51.280;12.400;2023-11-21T09:13:58;32.83;;;30.45;;
20381;SDS011;10350;51.280;12.400;2023-11-21T09:16:24;34.25;;;31.55;;
20381;SDS011;10350;51.280;12.400;2023-11-21T09:18:50;35.42;;;32.95;;
20381;SDS011;10350;51.280;12.400;2023-11-21T09:21:16;34.80;;;32.45;;
20381;SDS011;10350;51.280;12.400;2023-11-21T09:23:44;33.70;;;31.00;;
20381;SDS011;10350;51.280;12.400;2023-11-21T09:26:10;32.30;;;29.92;;
20381;SDS011;10350;51.280;12.400;2023-11-21T09:28:37;34.95;;;32.38;;
20381;SDS011;10350;51.280;12.400;2023-11-21T09:31:03;32.65;;;30.38;;
20381;SDS011;10350;51.280;12.400;2023-11-21T09:33:30;33.22;;;30.95;;
20381;SDS011;10350;51.280;12.400;2023-11-21T09:35:56;31.33;;;29.20;;
20381;SDS011;10350;51.280;12.400;2023-11-21T09:38:22;31.95;;;29.80;;
20381;SDS011;10350;51.280;12.400;2023-11-21T09:40:48;33.72;;;31.42;;
20381;SDS011;10350;51.280;12.400;2023-11-21T09:43:19;33.50;;;31.25;;
20381;SDS011;10350;51.280;12.400;2023-11-21T09:45:46;31.02;;;28.98;;
20381;SDS011;10350;51.280;12.400;2023-11-21T09:48:13;33.40;;;31.13;;
20381;SDS011;10350;51.280;12.400;2023-11-21T09:50:39;32.83;;;30.63;;
20381;SDS011;10350;51.280;12.400;2023-11-21T09:55:35;31.75;;;29.48;;
20381;SDS011;10350;51.280;12.400;2023-11-21T09:58:03;30.80;;;28.52;;
20381;SDS011;10350;51.280;12.400;2023-11-21T10:00:33;31.50;;;29.30;;
20381;SDS011;10350;51.280;12.400;2023-11-21T10:02:59;32.53;;;30.10;;
20381;SDS011;10350;51.280;12.400;2023-11-21T10:05:26;31.65;;;29.58;;
20381;SDS011;10350;51.280;12.400;2023-11-21T10:07:53;32.08;;;29.92;;
20381;SDS011;10350;51.280;12.400;2023-11-21T10:10:22;32.83;;;30.42;;
20381;SDS011;10350;51.280;12.400;2023-11-21T10:12:49;31.38;;;29.13;;
20381;SDS011;10350;51.280;12.400;2023-11-21T10:15:21;32.17;;;30.17;;
20381;SDS011;10350;51.280;12.400;2023-11-21T10:17:48;32.00;;;29.85;;
20381;SDS011;10350;51.280;12.400;2023-11-21T10:20:14;32.53;;;30.50;;
20381;SDS011;10350;51.280;12.400;2023-11-21T10:22:41;34.30;;;32.00;;
20381;SDS011;10350;51.280;12.400;2023-11-21T10:25:11;32.30;;;30.02;;
20381;SDS011;10350;51.280;12.400;2023-11-21T10:27:41;30.50;;;28.63;;
20381;SDS011;10350;51.280;12.400;2023-11-21T10:30:08;29.13;;;27.13;;
20381;SDS011;10350;51.280;12.400;2023-11-21T10:32:37;34.15;;;31.75;;
20381;SDS011;10350;51.280;12.400;2023-11-21T10:35:03;33.40;;;31.00;;
20381;SDS011;10350;51.280;12.400;2023-11-21T10:37:35;29.30;;;27.23;;
20381;SDS011;10350;51.280;12.400;2023-11-21T10:40:01;30.90;;;28.73;;
20381;SDS011;10350;51.280;12.400;2023-11-21T10:42:30;33.50;;;31.40;;
20381;SDS011;10350;51.280;12.400;2023-11-21T10:44:57;30.63;;;28.42;;
20381;SDS011;10350;51.280;12.400;2023-11-21T10:47:23;32.55;;;30.30;;
20381;SDS011;10350;51.280;12.400;2023-11-21T10:49:49;31.08;;;28.98;;
20381;SDS011;10350;51.280;12.400;2023-11-21T10:52:15;30.73;;;28.83;;
20381;SDS011;10350;51.280;12.400;2023-11-21T10:54:44;34.72;;;32.53;;
20381;SDS011;10350;51.280;12.400;2023-11-21T10:57:10;32.17;;;30.20;;
20381;SDS011;10350;51.280;12.400;2023-11-21T10:59:40;30.58;;;28.75;;
20381;SDS011;10350;51.280;12.400;2023-11-21T11:02:18;33.80;;;31.50;;
20381;SDS011;10350;51.280;12.400;2023-11-21T11:04:48;35.50;;;33.28;;
20381;SDS011;10350;51.280;12.400;2023-11-21T11:07:15;34.43;;;32.13;;
20381;SDS011;10350;51.280;12.400;2023-11-21T11:09:42;36.47;;;34.08;;
20381;SDS011;10350;51.280;12.400;2023-11-21T11:12:10;33.35;;;30.90;;
20381;SDS011;10350;51.280;12.400;2023-11-21T11:14:36;34.03;;;31.88;;
20381;SDS011;10350;51.280;12.400;2023-11-21T11:17:02;34.10;;;31.73;;
20381;SDS011;10350;51.280;12.400;2023-11-21T11:22:16;35.53;;;33.13;;
20381;SDS011;10350;51.280;12.400;2023-11-21T11:35:02;35.33;;;32.80;;
20381;SDS011;10350;51.280;12.400;2023-11-21T11:37:29;35.80;;;33.17;;
20381;SDS011;10350;51.280;12.400;2023-11-21T11:39:56;35.10;;;32.55;;
20381;SDS011;10350;51.280;12.400;2023-11-21T11:42:22;33.83;;;31.55;;
20381;SDS011;10350;51.280;12.400;2023-11-21T11:44:49;33.30;;;30.92;;
20381;SDS011;10350;51.280;12.400;2023-11-21T11:55:02;36.38;;;33.33;;
20381;SDS011;10350;51.280;12.400;2023-11-21T11:57:32;35.83;;;32.67;;
20381;SDS011;10350;51.280;12.400;2023-11-21T12:00:09;37.15;;;33.65;;
20381;SDS011;10350;51.280;12.400;2023-11-21T12:02:37;40.75;;;36.88;;
20381;SDS011;10350;51.280;12.400;2023-11-21T12:05:11;40.53;;;37.28;;
20381;SDS011;10350;51.280;12.400;2023-11-21T12:07:48;37.58;;;34.67;;
20381;SDS011;10350;51.280;12.400;2023-11-21T12:10:19;39.28;;;35.97;;
20381;SDS011;10350;51.280;12.400;2023-11-21T12:15:49;39.25;;;36.03;;
20381;SDS011;10350;51.280;12.400;2023-11-21T12:18:15;37.83;;;34.78;;
20381;SDS011;10350;51.280;12.400;2023-11-21T12:20:41;36.85;;;33.95;;
20381;SDS011;10350;51.280;12.400;2023-11-21T12:23:11;37.28;;;34.30;;
20381;SDS011;10350;51.280;12.400;2023-11-21T12:28:06;38.75;;;36.25;;
20381;SDS011;10350;51.280;12.400;2023-11-21T12:30:39;38.60;;;36.15;;
20381;SDS011;10350;51.280;12.400;2023-11-21T12:33:05;40.40;;;37.55;;
20381;SDS011;10350;51.280;12.400;2023-11-21T12:37:59;41.92;;;39.17;;
20381;SDS011;10350;51.280;12.400;2023-11-21T12:40:27;39.60;;;36.63;;
20381;SDS011;10350;51.280;12.400;2023-11-21T12:42:54;39.53;;;37.00;;
20381;SDS011;10350;51.280;12.400;2023-11-21T12:45:21;40.13;;;37.78;;
20381;SDS011;10350;51.280;12.400;2023-11-21T12:47:57;40.33;;;37.88;;
20381;SDS011;10350;51.280;12.400;2023-11-21T12:50:25;44.35;;;41.58;;
20381;SDS011;10350;51.280;12.400;2023-11-21T12:52:58;43.70;;;40.95;;
20381;SDS011;10350;51.280;12.400;2023-11-21T12:55:24;43.72;;;40.95;;
20381;SDS011;10350;51.280;12.400;2023-11-21T12:57:54;40.00;;;37.50;;
20381;SDS011;10350;51.280;12.400;2023-11-21T13:00:54;35.22;;;33.00;;
20381;SDS011;10350;51.280;12.400;2023-11-21T13:03:14;31.27;;;29.27;;
20381;SDS011;10350;51.280;12.400;2023-11-21T13:05:48;28.25;;;26.25;;
20381;SDS011;10350;51.280;12.400;2023-11-21T13:08:20;28.90;;;26.75;;
20381;SDS011;10350;51.280;12.400;2023-11-21T13:10:48;31.27;;;29.08;;
20381;SDS011;10350;51.280;12.400;2023-11-21T13:13:15;31.33;;;28.60;;
20381;SDS011;10350;51.280;12.400;2023-11-21T13:15:49;32.13;;;29.60;;
20381;SDS011;10350;51.280;12.400;2023-11-21T13:18:15;31.30;;;28.75;;
20381;SDS011;10350;51.280;12.400;2023-11-21T13:20:42;32.50;;;29.77;;
20381;SDS011;10350;51.280;12.400;2023-11-21T13:23:08;33.25;;;30.30;;
20381;SDS011;10350;51.280;12.400;2023-11-21T13:25:36;30.70;;;27.95;;
20381;SDS011;10350;51.280;12.400;2023-11-21T13:28:04;32.67;;;29.60;;
20381;SDS011;10350;51.280;12.400;2023-11-21T13:30:30;33.53;;;30.67;;
20381;SDS011;10350;51.280;12.400;2023-11-21T13:33:02;30.10;;;27.95;;
20381;SDS011;10350;51.280;12.400;2023-11-21T13:35:36;33.47;;;30.95;;
20381;SDS011;10350;51.280;12.400;2023-11-21T13:38:13;32.88;;;30.08;;
20381;SDS011;10350;51.280;12.400;2023-11-21T13:40:40;33.25;;;30.17;;
20381;SDS011;10350;51.280;12.400;2023-11-21T13:43:12;31.38;;;28.77;;
20381;SDS011;10350;51.280;12.400;2023-11-21T13:45:38;32.08;;;29.35;;
20381;SDS011;10350;51.280;12.400;2023-11-21T13:48:05;29.63;;;27.45;;
20381;SDS011;10350;51.280;12.400;2023-11-21T13:50:35;30.10;;;27.65;;
20381;SDS011;10350;51.280;12.400;2023-11-21T13:53:01;33.65;;;30.98;;
20381;SDS011;10350;51.280;12.400;2023-11-21T13:55:33;30.48;;;27.40;;
20381;SDS011;10350;51.280;12.400;2023-11-21T13:58:01;30.63;;;28.27;;
20381;SDS011;10350;51.280;12.400;2023-11-21T14:00:27;30.75;;;28.13;;
20381;SDS011;10350;51.280;12.400;2023-11-21T14:03:20;31.48;;;29.08;;
20381;SDS011;10350;51.280;12.400;2023-11-21T14:05:47;30.63;;;28.23;;
20381;SDS011;10350;51.280;12.400;2023-11-21T14:08:17;32.05;;;29.58;;
20381;SDS011;10350;51.280;12.400;2023-11-21T14:10:45;29.17;;;26.98;;
20381;SDS011;10350;51.280;12.400;2023-11-21T14:13:16;31.77;;;29.48;;
20381;SDS011;10350;51.280;12.400;2023-11-21T14:15:42;31.40;;;28.85;;
20381;SDS011;10350;51.280;12.400;2023-11-21T14:18:11;32.15;;;29.85;;
20381;SDS011;10350;51.280;12.400;2023-11-21T14:20:39;32.80;;;30.60;;
20381;SDS011;10350;51.280;12.400;2023-11-21T14:23:06;29.20;;;26.90;;
20381;SDS011;10350;51.280;12.400;2023-11-21T14:25:35;31.42;;;28.90;;
20381;SDS011;10350;51.280;12.400;2023-11-21T14:28:02;30.98;;;28.42;;
20381;SDS011;10350;51.280;12.400;2023-11-21T14:30:28;29.58;;;27.40;;
20381;SDS011;10350;51.280;12.400;2023-11-21T14:32:58;29.17;;;27.00;;
20381;SDS011;10350;51.280;12.400;2023-11-21T14:35:24;30.45;;;27.73;;
20381;SDS011;10350;51.280;12.400;2023-11-21T14:37:51;29.93;;;27.83;;
20381;SDS011;10350;51.280;12.400;2023-11-21T14:40:17;27.67;;;25.52;;
20381;SDS011;10350;51.280;12.400;2023-11-21T14:42:49;28.30;;;26.33;;
20381;SDS011;10350;51.280;12.400;2023-11-21T14:45:17;29.67;;;27.60;;
20381;SDS011;10350;51.280;12.400;2023-11-21T14:47:45;29.33;;;27.35;;
20381;SDS011;10350;51.280;12.400;2023-11-21T14:50:22;30.77;;;28.63;;
20381;SDS011;10350;51.280;12.400;2023-11-21T14:53:06;30.70;;;28.60;;
20381;SDS011;10350;51.280;12.400;2023-11-21T14:55:33;31.50;;;29.17;;
20381;SDS011;10350;51.280;12.400;2023-11-21T14:58:14;27.85;;;25.88;;
20381;SDS011;10350;51.280;12.400;2023-11-21T15:00:44;30.20;;;28.15;;
20381;SDS011;10350;51.280;12.400;2023-11-21T15:03:11;29.27;;;27.25;;
20381;SDS011;10350;51.280;12.400;2023-11-21T15:06:06;30.17;;;27.73;;
20381;SDS011;10350;51.280;12.400;2023-11-21T15:08:51;31.05;;;28.95;;
20381;SDS011;10350;51.280;12.400;2023-11-21T15:11:33;27.98;;;26.25;;
20381;SDS011;10350;51.280;12.400;2023-11-21T15:13:59;28.40;;;26.50;;
20381;SDS011;10350;51.280;12.400;2023-11-21T15:16:25;27.48;;;25.77;;
20381;SDS011;10350;51.280;12.400;2023-11-21T15:18:52;29.55;;;27.60;;
20381;SDS011;10350;51.280;12.400;2023-11-21T15:21:19;30.27;;;28.40;;
20381;SDS011;10350;51.280;12.400;2023-11-21T15:23:47;30.20;;;28.30;;
20381;SDS011;10350;51.280;12.400;2023-11-21T15:26:13;31.27;;;29.25;;
20381;SDS011;10350;51.280;12.400;2023-11-21T15:28:39;30.63;;;28.65;;
20381;SDS011;10350;51.280;12.400;2023-11-21T15:31:05;30.40;;;28.40;;
20381;SDS011;10350;51.280;12.400;2023-11-21T15:33:33;29.50;;;27.58;;
20381;SDS011;10350;51.280;12.400;2023-11-21T15:36:00;28.88;;;27.00;;
20381;SDS011;10350;51.280;12.400;2023-11-21T15:38:27;30.25;;;28.25;;
20381;SDS011;10350;51.280;12.400;2023-11-21T15:40:53;29.38;;;27.45;;
20381;SDS011;10350;51.280;12.400;2023-11-21T15:43:19;27.83;;;26.10;;
20381;SDS011;10350;51.280;12.400;2023-11-21T15:45:46;29.17;;;27.42;;
20381;SDS011;10350;51.280;12.400;2023-11-21T15:48:12;28.25;;;26.48;;
20381;SDS011;10350;51.280;12.400;2023-11-21T15:50:38;28.92;;;26.92;;
20381;SDS011;10350;51.280;12.400;2023-11-21T15:53:11;29.25;;;27.40;;
20381;SDS011;10350;51.280;12.400;2023-11-21T15:55:37;28.05;;;26.35;;
20381;SDS011;10350;51.280;12.400;2023-11-21T15:58:07;29.17;;;27.25;;
20381;SDS011;10350;51.280;12.400;2023-11-21T16:00:33;29.73;;;28.02;;
20381;SDS011;10350;51.280;12.400;2023-11-21T16:03:00;32.42;;;30.40;;
20381;SDS011;10350;51.280;12.400;2023-11-21T16:05:26;32.30;;;30.40;;
20381;SDS011;10350;51.280;12.400;2023-11-21T16:07:52;30.73;;;28.77;;
20381;SDS011;10350;51.280;12.400;2023-11-21T16:10:19;30.13;;;28.42;;
20381;SDS011;10350;51.280;12.400;2023-11-21T16:13:07;29.92;;;28.23;;
20381;SDS011;10350;51.280;12.400;2023-11-21T16:15:48;33.15;;;31.15;;
20381;SDS011;10350;51.280;12.400;2023-11-21T16:21:15;31.58;;;29.70;;
